Peotone Weather
Station Historical Data
 
Daily Summary for May 28, 2017 Units:  English    Metric   Both
« Previous Day
Next Day »
Daily Weekly Monthly Yearly Custom
  Current: High: Low: Average:
Temperature: 75.8 °F 75.8 °F 57.9 °F 62.6 °F
Dew Point: 65.7 °F 67.1 °F 56.5 °F 59.8 °F
Humidity: 71% 97% 71% 91%
Wind Speed: 11.5mph 14.9mph 0.0mph 1.5mph
Wind Gust: 11.5mph 16.1mph - -
WindWNW - - SSW
Pressure: 29.71 in 29.81 in 29.70 in -
Precipitation: 0.00 in      
Historical Graphs
 
 
Tabular Data for May 28, 2017
Time Temperature Dew Point Pressure Wind Wind Speed Wind Gust Humidity Rainfall Rate (Hourly) solar Conditions
00:00 60.2 °F 57.9 °F 29.80 in Calm     92% 0.00 in 0.00 W/m2
00:03 60.2 °F 57.9 °F 29.81 in Calm     92% 0.00 in 0.00 W/m2
00:05 60.3 °F 58.0 °F 29.80 in Calm     92% 0.00 in 0.00 W/m2
00:08 60.2 °F 57.9 °F 29.80 in Calm     92% 0.00 in 0.00 W/m2
00:10 60.1 °F 57.8 °F 29.80 in Calm     92% 0.00 in 0.00 W/m2
00:13 60.0 °F 57.7 °F 29.79 in Calm   2.3 mph 92% 0.00 in 0.00 W/m2
00:15 59.9 °F 57.9 °F 29.79 in Calm   2.3 mph 93% 0.00 in 0.00 W/m2
00:18 59.8 °F 57.8 °F 29.79 in Calm     93% 0.00 in 0.00 W/m2
00:20 59.8 °F 57.8 °F 29.79 in Calm   1.1 mph 93% 0.00 in 0.00 W/m2
00:23 59.9 °F 57.9 °F 29.79 in Calm     93% 0.00 in 0.00 W/m2
00:25 60.1 °F 58.1 °F 29.80 in Calm     93% 0.00 in 0.00 W/m2
00:28 60.2 °F 58.2 °F 29.80 in Calm     93% 0.00 in 0.00 W/m2
00:30 60.0 °F 58.0 °F 29.80 in Calm     93% 0.00 in 0.00 W/m2
00:34 59.9 °F 57.9 °F 29.80 in Calm   2.3 mph 93% 0.00 in 0.00 W/m2
00:35 59.8 °F 57.8 °F 29.80 in Calm   2.3 mph 93% 0.00 in 0.00 W/m2
00:39 59.7 °F 57.7 °F 29.79 in Calm     93% 0.00 in 0.00 W/m2
00:40 59.8 °F 57.8 °F 29.79 in Calm   1.1 mph 93% 0.00 in 0.00 W/m2
00:44 59.8 °F 57.8 °F 29.80 in Calm   2.3 mph 93% 0.00 in 0.00 W/m2
00:45 59.8 °F 57.8 °F 29.80 in Calm   2.3 mph 93% 0.00 in 0.00 W/m2
00:49 59.9 °F 57.9 °F 29.80 in Calm   1.1 mph 93% 0.00 in 0.00 W/m2
00:50 60.0 °F 58.0 °F 29.80 in Calm   1.1 mph 93% 0.00 in 0.00 W/m2
00:54 60.0 °F 58.0 °F 29.80 in Calm     93% 0.00 in 0.00 W/m2
00:55 60.0 °F 58.0 °F 29.79 in Calm     93% 0.00 in 0.00 W/m2
00:59 59.9 °F 57.9 °F 29.79 in Calm     93% 0.00 in 0.00 W/m2
01:00 60.0 °F 58.0 °F 29.79 in Calm     93% 0.00 in 0.00 W/m2
01:04 60.0 °F 58.0 °F 29.79 in Calm     93% 0.00 in 0.00 W/m2
01:05 59.9 °F 57.9 °F 29.80 in Calm     93% 0.00 in 0.00 W/m2
01:09 59.8 °F 57.8 °F 29.80 in Calm     93% 0.00 in 0.00 W/m2
01:10 59.6 °F 57.6 °F 29.80 in Calm     93% 0.00 in 0.00 W/m2
01:14 59.5 °F 57.5 °F 29.80 in Calm     93% 0.00 in 0.00 W/m2
01:15 59.5 °F 57.5 °F 29.80 in Calm     93% 0.00 in 0.00 W/m2
01:19 59.4 °F 57.4 °F 29.79 in Calm     93% 0.00 in 0.00 W/m2
01:20 59.4 °F 57.4 °F 29.79 in Calm     93% 0.00 in 0.00 W/m2
01:24 59.2 °F 57.2 °F 29.79 in Calm     93% 0.00 in 0.00 W/m2
01:25 59.1 °F 57.1 °F 29.79 in Calm     93% 0.00 in 0.00 W/m2
01:29 59.1 °F 57.1 °F 29.79 in Calm     93% 0.00 in 0.00 W/m2
01:30 59.0 °F 57.0 °F 29.79 in Calm     93% 0.00 in 0.00 W/m2
01:34 59.1 °F 57.4 °F 29.79 in Calm     94% 0.00 in 0.00 W/m2
01:35 59.0 °F 57.3 °F 29.79 in Calm     94% 0.00 in 0.00 W/m2
01:39 59.0 °F 57.3 °F 29.79 in Calm     94% 0.00 in 0.00 W/m2
01:40 59.0 °F 57.3 °F 29.79 in Calm     94% 0.00 in 0.00 W/m2
01:44 59.0 °F 57.3 °F 29.79 in Calm     94% 0.00 in 0.00 W/m2
01:45 58.9 °F 57.2 °F 29.78 in Calm     94% 0.00 in 0.00 W/m2
01:49 58.9 °F 57.2 °F 29.78 in Calm     94% 0.00 in 0.00 W/m2
01:50 59.0 °F 57.3 °F 29.78 in Calm     94% 0.00 in 0.00 W/m2
01:54 59.1 °F 57.4 °F 29.78 in Calm     94% 0.00 in 0.00 W/m2
01:55 59.1 °F 57.4 °F 29.78 in Calm     94% 0.00 in 0.00 W/m2
01:59 59.2 °F 57.5 °F 29.77 in Calm     94% 0.00 in 0.00 W/m2
02:00 59.1 °F 57.4 °F 29.77 in Calm     94% 0.00 in 0.00 W/m2
02:04 59.0 °F 57.3 °F 29.76 in Calm     94% 0.00 in 0.00 W/m2
02:05 58.9 °F 57.2 °F 29.76 in Calm     94% 0.00 in 0.00 W/m2
02:09 58.8 °F 57.1 °F 29.76 in Calm     94% 0.00 in 0.00 W/m2
02:10 59.0 °F 57.3 °F 29.76 in Calm     94% 0.00 in 0.00 W/m2
02:14 59.1 °F 57.4 °F 29.76 in Calm     94% 0.00 in 0.00 W/m2
02:15 59.1 °F 57.4 °F 29.76 in Calm     94% 0.00 in 0.00 W/m2
02:19 59.0 °F 57.3 °F 29.76 in Calm     94% 0.00 in 0.00 W/m2
02:20 59.0 °F 57.3 °F 29.76 in Calm     94% 0.00 in 0.00 W/m2
02:24 59.0 °F 57.3 °F 29.76 in Calm     94% 0.00 in 0.00 W/m2
02:25 58.9 °F 57.2 °F 29.76 in Calm     94% 0.00 in 0.00 W/m2
02:29 58.9 °F 57.2 °F 29.76 in Calm     94% 0.00 in 0.00 W/m2
02:30 58.9 °F 57.2 °F 29.76 in Calm     94% 0.00 in 0.00 W/m2
02:34 58.8 °F 57.1 °F 29.76 in Calm     94% 0.00 in 0.00 W/m2
02:35 58.8 °F 57.1 °F 29.76 in Calm     94% 0.00 in 0.00 W/m2
02:39 58.9 °F 57.2 °F 29.76 in Calm     94% 0.00 in 0.00 W/m2
02:40 58.9 °F 57.2 °F 29.76 in Calm     94% 0.00 in 0.00 W/m2
02:44 58.8 °F 57.1 °F 29.76 in Calm     94% 0.00 in 0.00 W/m2
02:45 58.8 °F 57.1 °F 29.76 in Calm     94% 0.00 in 0.00 W/m2
02:50 58.6 °F 56.9 °F 29.75 in Calm     94% 0.00 in 0.00 W/m2
02:55 58.6 °F 56.9 °F 29.75 in Calm     94% 0.00 in 0.00 W/m2
03:00 58.7 °F 57.3 °F 29.75 in Calm     95% 0.00 in 0.00 W/m2
03:06 58.7 °F 57.3 °F 29.75 in Calm     95% 0.00 in 0.00 W/m2
03:11 58.4 °F 56.7 °F 29.75 in Calm     94% 0.00 in 0.00 W/m2
03:16 58.2 °F 56.8 °F 29.75 in Calm     95% 0.00 in 0.00 W/m2
03:21 58.1 °F 56.7 °F 29.75 in Calm     95% 0.00 in 0.00 W/m2
03:26 58.0 °F 56.6 °F 29.75 in Calm     95% 0.00 in 0.00 W/m2
03:31 58.0 °F 56.6 °F 29.74 in Calm     95% 0.00 in 0.00 W/m2
03:36 57.9 °F 56.5 °F 29.74 in Calm     95% 0.00 in 0.00 W/m2
03:41 58.2 °F 56.8 °F 29.73 in Calm     95% 0.00 in 0.00 W/m2
03:46 58.4 °F 57.0 °F 29.73 in Calm     95% 0.00 in 0.00 W/m2
03:51 58.2 °F 56.8 °F 29.73 in Calm     95% 0.00 in 0.00 W/m2
03:56 58.3 °F 56.9 °F 29.73 in Calm     95% 0.00 in 0.00 W/m2
04:01 58.2 °F 56.8 °F 29.73 in Calm     95% 0.00 in 0.00 W/m2
04:06 58.2 °F 56.8 °F 29.72 in Calm     95% 0.00 in 0.00 W/m2
04:11 58.1 °F 56.7 °F 29.71 in Calm     95% 0.00 in 0.00 W/m2
04:17 58.3 °F 57.2 °F 29.71 in Calm     96% 0.00 in 0.00 W/m2
04:22 58.2 °F 56.8 °F 29.72 in Calm     95% 0.00 in 0.00 W/m2
04:27 58.4 °F 57.3 °F 29.71 in Calm     96% 0.00 in 0.00 W/m2
04:32 58.4 °F 57.0 °F 29.72 in Calm     95% 0.00 in 0.00 W/m2
04:37 58.4 °F 57.3 °F 29.72 in Calm     96% 0.00 in 0.00 W/m2
04:42 58.2 °F 56.8 °F 29.71 in Calm     95% 0.00 in 0.00 W/m2
04:47 58.2 °F 57.1 °F 29.71 in Calm     96% 0.00 in 0.00 W/m2
04:52 58.3 °F 57.2 °F 29.72 in Calm     96% 0.00 in 0.00 W/m2
04:57 58.5 °F 57.4 °F 29.72 in Calm     96% 0.00 in 0.00 W/m2
05:02 58.1 °F 57.0 °F 29.72 in Calm     96% 0.00 in 0.00 W/m2
05:07 58.0 °F 56.9 °F 29.71 in Calm     96% 0.00 in 0.00 W/m2
05:12 58.1 °F 57.0 °F 29.71 in Calm     96% 0.00 in 0.00 W/m2
05:17 58.3 °F 57.2 °F 29.71 in ENE 1.1 mph 1.1 mph 96% 0.00 in 0.00 W/m2
05:22 58.2 °F 57.1 °F 29.71 in Calm     96% 0.00 in 0.00 W/m2
05:27 58.3 °F 57.2 °F 29.71 in Calm     96% 0.00 in 0.00 W/m2
05:32 58.2 °F 57.1 °F 29.71 in Calm   1.1 mph 96% 0.00 in 7.00 W/m2
05:37 58.0 °F 56.9 °F 29.71 in ENE 1.1 mph 1.1 mph 96% 0.00 in 11.00 W/m2
05:42 58.0 °F 56.9 °F 29.71 in Calm   2.3 mph 96% 0.00 in 14.00 W/m2
05:47 58.0 °F 56.9 °F 29.71 in Calm     96% 0.00 in 19.00 W/m2
05:52 58.4 °F 57.3 °F 29.71 in Calm   1.1 mph 96% 0.00 in 25.00 W/m2
05:57 58.5 °F 57.4 °F 29.71 in Calm     96% 0.00 in 30.00 W/m2
06:02 58.8 °F 57.7 °F 29.71 in Calm     96% 0.00 in 32.00 W/m2
06:07 58.9 °F 57.8 °F 29.72 in Calm     96% 0.00 in 39.00 W/m2
06:12 59.1 °F 58.0 °F 29.72 in Calm     96% 0.00 in 46.00 W/m2
06:17 59.3 °F 58.5 °F 29.71 in Calm     97% 0.00 in 54.00 W/m2
06:22 59.6 °F 58.5 °F 29.71 in Calm   2.3 mph 96% 0.00 in 65.00 W/m2
06:27 60.1 °F 59.2 °F 29.71 in Calm   2.3 mph 97% 0.00 in 74.00 W/m2
06:32 60.3 °F 59.5 °F 29.71 in Calm     97% 0.00 in 81.00 W/m2
06:37 60.5 °F 59.4 °F 29.71 in Calm     96% 0.00 in 93.00 W/m2
06:43 60.6 °F 59.5 °F 29.71 in Calm   3.4 mph 96% 0.00 in 95.00 W/m2
06:48 61.0 °F 59.9 °F 29.71 in ENE 1.1 mph 3.4 mph 96% 0.00 in 98.00 W/m2
06:53 61.3 °F 60.2 °F 29.72 in Calm     96% 0.00 in 84.00 W/m2
06:58 61.5 °F 60.3 °F 29.71 in Calm     96% 0.00 in 88.00 W/m2
07:03 61.8 °F 60.7 °F 29.71 in East 2.3 mph 3.4 mph 96% 0.00 in 118.00 W/m2
07:08 62.2 °F 61.0 °F 29.71 in Calm   3.4 mph 96% 0.00 in 151.00 W/m2
07:13 62.4 °F 61.2 °F 29.71 in Calm   2.3 mph 96% 0.00 in 178.00 W/m2
07:18 62.8 °F 61.3 °F 29.71 in East 2.3 mph 3.4 mph 95% 0.00 in 181.00 W/m2
07:23 63.0 °F 61.5 °F 29.71 in East 2.3 mph 2.3 mph 95% 0.00 in 160.00 W/m2
07:28 63.3 °F 61.5 °F 29.72 in East 1.1 mph 2.3 mph 94% 0.00 in 195.00 W/m2
07:33 63.9 °F 62.1 °F 29.72 in East 2.3 mph 5.8 mph 94% 0.00 in 229.00 W/m2
07:38 64.4 °F 62.3 °F 29.72 in Calm   3.4 mph 93% 0.00 in 265.00 W/m2
07:43 64.7 °F 62.3 °F 29.72 in East 3.4 mph 5.8 mph 92% 0.00 in 255.00 W/m2
07:48 65.2 °F 62.8 °F 29.72 in East 2.3 mph 3.4 mph 92% 0.00 in 207.00 W/m2
07:53 65.2 °F 62.8 °F 29.72 in ESE 1.1 mph 5.8 mph 92% 0.00 in 202.00 W/m2
07:58 65.5 °F 63.1 °F 29.72 in ESE 3.4 mph 4.6 mph 92% 0.00 in 257.00 W/m2
08:03 65.9 °F 63.5 °F 29.72 in ESE 1.1 mph 4.6 mph 92% 0.00 in 309.00 W/m2
08:08 66.3 °F 63.6 °F 29.72 in SE 1.1 mph 5.8 mph 91% 0.00 in 308.00 W/m2
08:13 66.6 °F 63.6 °F 29.72 in SE 1.1 mph 3.4 mph 90% 0.00 in 420.00 W/m2
08:18 67.1 °F 64.1 °F 29.71 in Calm   6.9 mph 90% 0.00 in 506.00 W/m2
08:23 67.1 °F 63.8 °F 29.71 in SE 3.4 mph 5.8 mph 89% 0.00 in 369.00 W/m2
08:29 67.2 °F 64.2 °F 29.71 in SSE 3.4 mph 8.1 mph 90% 0.00 in 413.00 W/m2
08:34 67.7 °F 64.3 °F 29.71 in SSE 3.4 mph 5.8 mph 89% 0.00 in 489.00 W/m2
08:39 68.3 °F 64.6 °F 29.71 in SSE 2.3 mph 4.6 mph 88% 0.00 in 561.00 W/m2
08:44 68.6 °F 64.6 °F 29.72 in South 1.1 mph 3.4 mph 87% 0.00 in 563.00 W/m2
08:49 69.0 °F 65.3 °F 29.71 in South 4.6 mph 4.6 mph 88% 0.00 in 594.00 W/m2
08:54 69.3 °F 65.3 °F 29.71 in SSE 3.4 mph 5.8 mph 87% 0.00 in 506.00 W/m2
08:59 69.5 °F 65.1 °F 29.71 in SSE 5.8 mph 6.9 mph 86% 0.00 in 635.00 W/m2
09:04 70.2 °F 65.5 °F 29.71 in SSE 3.4 mph 5.8 mph 85% 0.00 in 621.00 W/m2
09:09 70.7 °F 66.0 °F 29.71 in South 1.1 mph 4.6 mph 85% 0.00 in 561.00 W/m2
09:14 70.6 °F 65.9 °F 29.71 in South 2.3 mph 6.9 mph 85% 0.00 in 606.00 W/m2
09:19 70.9 °F 66.2 °F 29.71 in South 1.1 mph 5.8 mph 85% 0.00 in 480.00 W/m2
09:24 71.0 °F 65.9 °F 29.71 in West 4.6 mph 6.9 mph 84% 0.00 in 751.00 W/m2
09:29 71.9 °F 66.8 °F 29.71 in West 1.1 mph 6.9 mph 84% 0.00 in 680.00 W/m2
09:34 72.5 °F 67.1 °F 29.71 in WSW 6.9 mph 9.2 mph 83% 0.00 in 464.00 W/m2
09:39 72.5 °F 66.3 °F 29.71 in WSW 3.4 mph 10.3 mph 81% 0.00 in 570.00 W/m2
09:44 72.8 °F 66.3 °F 29.70 in West 4.6 mph 9.2 mph 80% 0.00 in 348.00 W/m2
09:49 73.0 °F 66.1 °F 29.70 in West 4.6 mph 8.1 mph 79% 0.00 in 478.00 W/m2
09:54 72.7 °F 64.7 °F 29.70 in WNW 3.4 mph 10.3 mph 76% 0.00 in 367.00 W/m2
09:59 72.4 °F 64.4 °F 29.70 in West 5.8 mph 11.5 mph 76% 0.00 in 364.00 W/m2
10:04 72.1 °F 64.9 °F 29.70 in West 6.9 mph 9.2 mph 78% 0.00 in 381.00 W/m2
10:09 72.6 °F 65.3 °F 29.70 in West 5.8 mph 9.2 mph 78% 0.00 in 380.00 W/m2
10:14 72.8 °F 65.2 °F 29.70 in West 3.4 mph 10.3 mph 77% 0.00 in 281.00 W/m2
10:19 72.6 °F 65.0 °F 29.71 in NW 9.2 mph 10.3 mph 77% 0.00 in 262.00 W/m2
10:25 72.4 °F 64.8 °F 29.71 in NW 12.6 mph 12.6 mph 77% 0.00 in 350.00 W/m2
10:30 72.4 °F 64.8 °F 29.71 in WNW 9.2 mph 16.1 mph 77% 0.00 in 327.00 W/m2
10:35 72.4 °F 64.4 °F 29.71 in SW 4.6 mph 14.9 mph 76% 0.00 in 413.00 W/m2
10:40 73.5 °F 65.5 °F 29.71 in West 14.9 mph 14.9 mph 76% 0.00 in 673.00 W/m2
10:45 74.0 °F 64.8 °F 29.71 in West 4.6 mph 11.5 mph 73% 0.00 in 870.00 W/m2
10:50 74.6 °F 66.2 °F 29.71 in NW 5.8 mph 12.6 mph 75% 0.00 in 979.00 W/m2
10:55 74.2 °F 65.0 °F 29.71 in NW 10.3 mph 12.6 mph 73% 0.00 in 513.00 W/m2
11:00 73.9 °F 65.1 °F 29.71 in NW 6.9 mph 13.8 mph 74% 0.00 in 461.00 W/m2
11:05 73.8 °F 64.6 °F 29.72 in West 9.2 mph 16.1 mph 73% 0.00 in 450.00 W/m2
11:10 73.9 °F 65.1 °F 29.71 in WNW 9.2 mph 12.6 mph 74% 0.00 in 425.00 W/m2
11:11 73.9 °F 63.9 °F 29.71 in WNW 6.9 mph 8.1 mph 71% 0.00 in 520.00 W/m2
11:16 73.7 °F 64.9 °F 29.71 in WNW 8.1 mph 9.2 mph 74% 0.00 in 394.00 W/m2
11:21 73.7 °F 64.9 °F 29.71 in WNW 5.8 mph 9.2 mph 74% 0.00 in 445.00 W/m2
11:26 74.1 °F 64.9 °F 29.71 in NW 4.6 mph 5.8 mph 73% 0.00 in 589.00 W/m2
11:31 74.4 °F 64.4 °F 29.71 in WNW 5.8 mph 6.9 mph 71% 0.00 in 446.00 W/m2
11:36 75.0 °F 65.0 °F 29.71 in West 8.1 mph 8.1 mph 71% 0.00 in 1113.00 W/m2
11:41 75.8 °F 65.7 °F 29.71 in WNW 11.5 mph 11.5 mph 71% 0.00 in 346.00 W/m2
peotoneweather.com
Compliments of Weather Underground - 1.25 mb